sensor_id;sensor_type;location;lat;lon;timestamp;pressure;altitude;pressure_sealevel;temperature;humidity
41366;BME280;27108;44.776;20.476;2022-08-03T00:00:11;99851.59;;;24.00;60.18
41366;BME280;27108;44.776;20.476;2022-08-03T00:02:42;99855.66;;;23.92;60.84
41366;BME280;27108;44.776;20.476;2022-08-03T00:05:11;99857.31;;;23.87;60.52
41366;BME280;27108;44.776;20.476;2022-08-03T00:07:42;99848.97;;;23.81;62.40
41366;BME280;27108;44.776;20.476;2022-08-03T00:10:12;99852.81;;;23.71;61.18
41366;BME280;27108;44.776;20.476;2022-08-03T00:12:42;99740.38;;;22.80;62.23
41366;BME280;27108;44.776;20.476;2022-08-03T00:15:15;99849.84;;;23.63;61.48
41366;BME280;27108;44.776;20.476;2022-08-03T00:17:44;99854.34;;;23.45;61.90
41366;BME280;27108;44.776;20.476;2022-08-03T00:20:13;99691.44;;;22.30;62.42
41366;BME280;27108;44.776;20.476;2022-08-03T00:22:43;99753.16;;;22.81;63.02
41366;BME280;27108;44.776;20.476;2022-08-03T00:25:12;99845.91;;;23.45;62.93
41366;BME280;27108;44.776;20.476;2022-08-03T00:27:47;99759.34;;;22.79;63.69
41366;BME280;27108;44.776;20.476;2022-08-03T00:30:19;99845.03;;;23.37;62.70
41366;BME280;27108;44.776;20.476;2022-08-03T00:32:48;99849.91;;;23.36;62.77
41366;BME280;27108;44.776;20.476;2022-08-03T00:35:22;99838.00;;;23.30;63.40
41366;BME280;27108;44.776;20.476;2022-08-03T00:37:51;99845.38;;;23.33;63.35
41366;BME280;27108;44.776;20.476;2022-08-03T00:40:20;99845.16;;;23.31;62.97
41366;BME280;27108;44.776;20.476;2022-08-03T00:42:51;99810.38;;;23.16;62.83
41366;BME280;27108;44.776;20.476;2022-08-03T00:45:23;99555.88;;;21.33;63.06
41366;BME280;27108;44.776;20.476;2022-08-03T00:47:55;99858.38;;;23.36;63.53
41366;BME280;27108;44.776;20.476;2022-08-03T00:50:28;99784.59;;;22.98;62.98
41366;BME280;27108;44.776;20.476;2022-08-03T00:52:58;99838.31;;;23.40;63.18
41366;BME280;27108;44.776;20.476;2022-08-03T00:55:29;99788.94;;;22.99;63.16
41366;BME280;27108;44.776;20.476;2022-08-03T00:57:58;99835.72;;;23.29;63.72
41366;BME280;27108;44.776;20.476;2022-08-03T01:00:41;99840.06;;;23.30;63.23
41366;BME280;27108;44.776;20.476;2022-08-03T01:03:11;99836.16;;;23.33;63.65
41366;BME280;27108;44.776;20.476;2022-08-03T01:05:46;99843.09;;;23.32;63.02
41366;BME280;27108;44.776;20.476;2022-08-03T01:08:22;99775.59;;;22.86;62.95
41366;BME280;27108;44.776;20.476;2022-08-03T01:11:04;99661.09;;;22.09;63.25
41366;BME280;27108;44.776;20.476;2022-08-03T01:13:44;99789.13;;;22.88;64.16
41366;BME280;27108;44.776;20.476;2022-08-03T01:16:22;99732.81;;;22.48;64.13
41366;BME280;27108;44.776;20.476;2022-08-03T01:18:59;99840.50;;;23.21;64.60
41366;BME280;27108;44.776;20.476;2022-08-03T01:21:32;99839.75;;;23.20;63.58
41366;BME280;27108;44.776;20.476;2022-08-03T01:24:05;99839.75;;;23.20;63.72
41366;BME280;27108;44.776;20.476;2022-08-03T01:27:02;99845.81;;;23.11;63.50
41366;BME280;27108;44.776;20.476;2022-08-03T01:29:54;99840.94;;;23.11;63.84
41366;BME280;27108;44.776;20.476;2022-08-03T01:32:33;99613.97;;;21.43;64.16
41366;BME280;27108;44.776;20.476;2022-08-03T01:35:08;99836.28;;;22.87;64.41
41366;BME280;27108;44.776;20.476;2022-08-03T01:37:40;99838.75;;;22.91;64.50
41366;BME280;27108;44.776;20.476;2022-08-03T01:40:18;99730.84;;;22.16;64.56
41366;BME280;27108;44.776;20.476;2022-08-03T01:43:08;99837.03;;;22.88;65.34
41366;BME280;27108;44.776;20.476;2022-08-03T01:45:42;99859.78;;;22.90;64.68
41366;BME280;27108;44.776;20.476;2022-08-03T01:48:15;99838.34;;;22.87;65.25
41366;BME280;27108;44.776;20.476;2022-08-03T01:50:45;99844.06;;;22.81;64.77
41366;BME280;27108;44.776;20.476;2022-08-03T01:53:16;99841.06;;;22.79;64.51
41366;BME280;27108;44.776;20.476;2022-08-03T01:55:48;99843.06;;;22.65;65.20
41366;BME280;27108;44.776;20.476;2022-08-03T01:58:21;99705.75;;;21.73;65.76
41366;BME280;27108;44.776;20.476;2022-08-03T02:00:55;99845.47;;;22.75;66.60
41366;BME280;27108;44.776;20.476;2022-08-03T02:03:28;99840.06;;;22.77;66.80
41366;BME280;27108;44.776;20.476;2022-08-03T02:05:57;99849.81;;;22.76;66.32
41366;BME280;27108;44.776;20.476;2022-08-03T02:08:46;99362.31;;;19.55;65.96
41366;BME280;27108;44.776;20.476;2022-08-03T02:11:16;99838.44;;;22.81;66.32
41366;BME280;27108;44.776;20.476;2022-08-03T02:13:46;99832.91;;;22.76;66.21
41366;BME280;27108;44.776;20.476;2022-08-03T02:16:18;99836.69;;;22.78;66.53
41366;BME280;27108;44.776;20.476;2022-08-03T02:18:50;99834.63;;;22.79;66.91
41366;BME280;27108;44.776;20.476;2022-08-03T02:21:20;99825.34;;;22.84;66.81
41366;BME280;27108;44.776;20.476;2022-08-03T02:23:50;99834.00;;;22.86;66.75
41366;BME280;27108;44.776;20.476;2022-08-03T02:26:23;99834.31;;;22.82;66.28
41366;BME280;27108;44.776;20.476;2022-08-03T02:28:59;99833.47;;;22.74;66.51
41366;BME280;27108;44.776;20.476;2022-08-03T02:31:33;99690.59;;;21.76;66.98
41366;BME280;27108;44.776;20.476;2022-08-03T02:34:12;99829.31;;;22.75;67.30
41366;BME280;27108;44.776;20.476;2022-08-03T02:36:46;99837.78;;;22.75;68.48
41366;BME280;27108;44.776;20.476;2022-08-03T02:39:19;99840.91;;;22.58;67.94
41366;BME280;27108;44.776;20.476;2022-08-03T02:41:53;99838.66;;;22.57;68.57
41366;BME280;27108;44.776;20.476;2022-08-03T02:44:31;99838.41;;;22.55;68.33
41366;BME280;27108;44.776;20.476;2022-08-03T02:47:02;99839.50;;;22.52;68.38
41366;BME280;27108;44.776;20.476;2022-08-03T02:50:00;99835.16;;;22.51;69.08
41366;BME280;27108;44.776;20.476;2022-08-03T02:52:32;99843.72;;;22.45;69.23
41366;BME280;27108;44.776;20.476;2022-08-03T02:55:08;99841.44;;;22.43;69.58
41366;BME280;27108;44.776;20.476;2022-08-03T02:57:38;99632.56;;;20.95;69.74
41366;BME280;27108;44.776;20.476;2022-08-03T03:00:10;99847.06;;;22.43;70.09
41366;BME280;27108;44.776;20.476;2022-08-03T03:02:42;99847.28;;;22.46;70.54
41366;BME280;27108;44.776;20.476;2022-08-03T03:05:41;99850.06;;;22.32;70.53
41366;BME280;27108;44.776;20.476;2022-08-03T03:08:11;99852.97;;;22.27;71.41
41366;BME280;27108;44.776;20.476;2022-08-03T03:10:41;99847.88;;;22.25;71.42
41366;BME280;27108;44.776;20.476;2022-08-03T03:13:12;99848.88;;;22.28;71.76
41366;BME280;27108;44.776;20.476;2022-08-03T03:15:44;99852.97;;;22.27;71.97
41366;BME280;27108;44.776;20.476;2022-08-03T03:18:16;99853.94;;;22.29;71.07
41366;BME280;27108;44.776;20.476;2022-08-03T03:20:49;99719.59;;;21.39;71.96
41366;BME280;27108;44.776;20.476;2022-08-03T03:23:20;99863.94;;;22.30;72.24
41366;BME280;27108;44.776;20.476;2022-08-03T03:25:50;99857.31;;;22.28;71.94
41366;BME280;27108;44.776;20.476;2022-08-03T03:28:21;99857.31;;;22.28;72.89
41366;BME280;27108;44.776;20.476;2022-08-03T03:30:51;99646.84;;;20.78;72.94
41366;BME280;27108;44.776;20.476;2022-08-03T03:33:22;99860.13;;;22.28;72.72
41366;BME280;27108;44.776;20.476;2022-08-03T03:35:51;99864.47;;;22.29;72.64
41366;BME280;27108;44.776;20.476;2022-08-03T03:38:22;99870.84;;;22.29;72.57
41366;BME280;27108;44.776;20.476;2022-08-03T03:40:51;99828.44;;;22.08;73.03
41366;BME280;27108;44.776;20.476;2022-08-03T03:43:22;99861.66;;;22.29;73.39
41366;BME280;27108;44.776;20.476;2022-08-03T03:45:51;99863.81;;;22.36;73.33
41366;BME280;27108;44.776;20.476;2022-08-03T03:48:23;99665.50;;;20.95;73.19
41366;BME280;27108;44.776;20.476;2022-08-03T03:50:52;99792.63;;;21.77;72.97
41366;BME280;27108;44.776;20.476;2022-08-03T03:53:24;99872.06;;;22.34;73.55
41366;BME280;27108;44.776;20.476;2022-08-03T03:55:53;99877.91;;;22.36;73.98
41366;BME280;27108;44.776;20.476;2022-08-03T03:58:22;99875.31;;;22.38;73.95
41366;BME280;27108;44.776;20.476;2022-08-03T04:00:51;99874.25;;;22.41;73.86
41366;BME280;27108;44.776;20.476;2022-08-03T04:03:22;99834.69;;;22.01;74.33
41366;BME280;27108;44.776;20.476;2022-08-03T04:05:51;99661.19;;;20.94;73.78
41366;BME280;27108;44.776;20.476;2022-08-03T04:08:39;99813.34;;;21.92;73.90
41366;BME280;27108;44.776;20.476;2022-08-03T04:11:27;99892.31;;;22.46;73.77
41366;BME280;27108;44.776;20.476;2022-08-03T04:14:02;99599.50;;;20.50;73.90
41366;BME280;27108;44.776;20.476;2022-08-03T04:16:36;99596.09;;;20.57;74.22
41366;BME280;27108;44.776;20.476;2022-08-03T04:19:14;99859.25;;;22.33;74.55
41366;BME280;27108;44.776;20.476;2022-08-03T04:21:49;99730.22;;;21.46;74.18
41366;BME280;27108;44.776;20.476;2022-08-03T04:24:19;99897.47;;;22.60;74.72
41366;BME280;27108;44.776;20.476;2022-08-03T04:26:50;99906.34;;;22.64;74.78
41366;BME280;27108;44.776;20.476;2022-08-03T04:29:20;99905.19;;;22.73;74.48
41366;BME280;27108;44.776;20.476;2022-08-03T04:31:51;99903.75;;;22.66;74.79
41366;BME280;27108;44.776;20.476;2022-08-03T04:34:22;99913.16;;;22.56;75.45
41366;BME280;27108;44.776;20.476;2022-08-03T04:36:53;99917.50;;;22.57;75.96
41366;BME280;27108;44.776;20.476;2022-08-03T04:39:30;99911.94;;;22.51;76.08
41366;BME280;27108;44.776;20.476;2022-08-03T04:42:02;99810.09;;;21.88;76.23
41366;BME280;27108;44.776;20.476;2022-08-03T04:44:35;99915.66;;;22.59;76.20
41366;BME280;27108;44.776;20.476;2022-08-03T04:47:06;99498.28;;;19.86;76.17
41366;BME280;27108;44.776;20.476;2022-08-03T04:49:37;99920.88;;;22.68;76.38
41366;BME280;27108;44.776;20.476;2022-08-03T04:52:07;99911.66;;;22.68;76.09
41366;BME280;27108;44.776;20.476;2022-08-03T04:54:40;99920.03;;;22.74;76.68
41366;BME280;27108;44.776;20.476;2022-08-03T04:57:10;99919.13;;;22.65;76.31
41366;BME280;27108;44.776;20.476;2022-08-03T04:59:41;99908.63;;;22.66;76.59
41366;BME280;27108;44.776;20.476;2022-08-03T05:02:10;99907.84;;;22.65;76.71
41366;BME280;27108;44.776;20.476;2022-08-03T05:04:40;99907.09;;;22.65;77.04
41366;BME280;27108;44.776;20.476;2022-08-03T05:07:12;99889.94;;;22.50;76.79
41366;BME280;27108;44.776;20.476;2022-08-03T05:09:42;99846.00;;;22.14;76.93
41366;BME280;27108;44.776;20.476;2022-08-03T05:12:14;99923.03;;;22.76;76.71
41366;BME280;27108;44.776;20.476;2022-08-03T05:14:47;99925.13;;;22.88;75.93
41366;BME280;27108;44.776;20.476;2022-08-03T05:17:19;99926.81;;;22.97;75.57
41366;BME280;27108;44.776;20.476;2022-08-03T05:19:50;99921.16;;;22.97;75.72
41366;BME280;27108;44.776;20.476;2022-08-03T05:22:19;99925.31;;;23.09;74.75
41366;BME280;27108;44.776;20.476;2022-08-03T05:24:49;99562.16;;;20.74;75.12
41366;BME280;27108;44.776;20.476;2022-08-03T05:27:44;99931.78;;;23.31;74.85
41366;BME280;27108;44.776;20.476;2022-08-03T05:30:13;99862.38;;;22.75;75.32
41366;BME280;27108;44.776;20.476;2022-08-03T05:32:44;99877.16;;;22.94;74.87
41366;BME280;27108;44.776;20.476;2022-08-03T05:35:17;99939.16;;;23.47;74.27
41366;BME280;27108;44.776;20.476;2022-08-03T05:37:46;99935.81;;;23.49;73.89
41366;BME280;27108;44.776;20.476;2022-08-03T05:40:15;99933.97;;;23.51;72.92
41366;BME280;27108;44.776;20.476;2022-08-03T05:42:43;99879.31;;;23.14;72.06
41366;BME280;27108;44.776;20.476;2022-08-03T05:45:18;99860.69;;;22.98;72.34
41366;BME280;27108;44.776;20.476;2022-08-03T05:47:49;99944.78;;;23.60;71.88
41366;BME280;27108;44.776;20.476;2022-08-03T05:50:21;99936.13;;;23.72;72.09
41366;BME280;27108;44.776;20.476;2022-08-03T05:52:54;99936.44;;;23.81;72.14
41366;BME280;27108;44.776;20.476;2022-08-03T05:55:25;99941.63;;;23.91;70.91
41366;BME280;27108;44.776;20.476;2022-08-03T05:57:54;99954.94;;;24.03;70.93
41366;BME280;27108;44.776;20.476;2022-08-03T06:00:24;99949.56;;;24.13;70.12
41366;BME280;27108;44.776;20.476;2022-08-03T06:02:53;99946.84;;;24.21;69.37
41366;BME280;27108;44.776;20.476;2022-08-03T06:05:23;99953.53;;;24.31;68.67
41366;BME280;27108;44.776;20.476;2022-08-03T06:07:53;99955.13;;;24.40;68.84
41366;BME280;27108;44.776;20.476;2022-08-03T06:10:22;99949.38;;;24.45;67.90
41366;BME280;27108;44.776;20.476;2022-08-03T06:12:52;99888.25;;;24.14;67.04
41366;BME280;27108;44.776;20.476;2022-08-03T06:15:23;99909.88;;;24.32;67.19
41366;BME280;27108;44.776;20.476;2022-08-03T06:17:52;99663.28;;;22.70;67.00
41366;BME280;27108;44.776;20.476;2022-08-03T06:20:26;99956.81;;;24.77;67.02
41366;BME280;27108;44.776;20.476;2022-08-03T06:22:56;99962.91;;;25.10;63.40
41366;BME280;27108;44.776;20.476;2022-08-03T06:25:30;99959.28;;;25.30;61.97
41366;BME280;27108;44.776;20.476;2022-08-03T06:27:59;99914.97;;;25.04;60.55
41366;BME280;27108;44.776;20.476;2022-08-03T06:30:29;99962.69;;;25.65;60.26
41366;BME280;27108;44.776;20.476;2022-08-03T06:32:58;99963.59;;;25.96;60.15
41366;BME280;27108;44.776;20.476;2022-08-03T06:35:29;99956.13;;;26.14;59.19
41366;BME280;27108;44.776;20.476;2022-08-03T06:37:57;99952.94;;;26.33;58.26
41366;BME280;27108;44.776;20.476;2022-08-03T06:40:26;99815.50;;;25.50;58.47
41366;BME280;27108;44.776;20.476;2022-08-03T06:42:58;99963.97;;;26.67;58.69
41366;BME280;27108;44.776;20.476;2022-08-03T06:45:27;99937.91;;;26.69;57.09
41366;BME280;27108;44.776;20.476;2022-08-03T06:48:01;99954.91;;;26.76;57.25
41366;BME280;27108;44.776;20.476;2022-08-03T06:50:34;99976.63;;;27.12;57.39
41366;BME280;27108;44.776;20.476;2022-08-03T06:53:05;99976.25;;;27.31;56.25
41366;BME280;27108;44.776;20.476;2022-08-03T06:55:36;99972.78;;;27.55;54.90
41366;BME280;27108;44.776;20.476;2022-08-03T06:58:08;99935.91;;;27.48;53.52
41366;BME280;27108;44.776;20.476;2022-08-03T07:00:37;99969.97;;;28.04;53.50
41366;BME280;27108;44.776;20.476;2022-08-03T07:03:06;99978.31;;;28.42;52.08
41366;BME280;27108;44.776;20.476;2022-08-03T07:05:36;99966.06;;;28.57;51.50
41366;BME280;27108;44.776;20.476;2022-08-03T07:08:05;99901.53;;;28.17;52.41
41366;BME280;27108;44.776;20.476;2022-08-03T07:10:34;99977.78;;;28.86;51.92
41366;BME280;27108;44.776;20.476;2022-08-03T07:13:04;99972.53;;;29.07;52.15
41366;BME280;27108;44.776;20.476;2022-08-03T07:15:35;99978.75;;;29.31;50.17
41366;BME280;27108;44.776;20.476;2022-08-03T07:18:05;99968.84;;;29.49;48.91
41366;BME280;27108;44.776;20.476;2022-08-03T07:20:36;99867.41;;;29.09;48.66
41366;BME280;27108;44.776;20.476;2022-08-03T07:23:05;99971.94;;;29.96;47.54
41366;BME280;27108;44.776;20.476;2022-08-03T07:25:35;99790.31;;;29.15;46.10
41366;BME280;27108;44.776;20.476;2022-08-03T07:28:04;99753.91;;;29.13;45.30
41366;BME280;27108;44.776;20.476;2022-08-03T07:30:42;99974.06;;;30.86;44.98
41366;BME280;27108;44.776;20.476;2022-08-03T07:33:11;99978.00;;;30.91;45.17
41366;BME280;27108;44.776;20.476;2022-08-03T07:35:41;99977.13;;;31.08;45.48
41366;BME280;27108;44.776;20.476;2022-08-03T07:38:10;99974.94;;;31.35;43.13
41366;BME280;27108;44.776;20.476;2022-08-03T07:40:38;99942.50;;;31.40;41.98
41366;BME280;27108;44.776;20.476;2022-08-03T07:43:10;99976.44;;;31.94;42.59
41366;BME280;27108;44.776;20.476;2022-08-03T07:45:40;99972.66;;;32.11;41.91
41366;BME280;27108;44.776;20.476;2022-08-03T07:48:09;99890.88;;;31.77;41.83
41366;BME280;27108;44.776;20.476;2022-08-03T07:50:40;99909.78;;;32.11;40.11
41366;BME280;27108;44.776;20.476;2022-08-03T07:53:13;99869.59;;;32.09;39.97
41366;BME280;27108;44.776;20.476;2022-08-03T07:55:41;99870.41;;;32.31;39.38
41366;BME280;27108;44.776;20.476;2022-08-03T07:58:14;99805.13;;;31.97;39.78
41366;BME280;27108;44.776;20.476;2022-08-03T08:00:45;99972.75;;;33.05;38.75
41366;BME280;27108;44.776;20.476;2022-08-03T08:03:17;99836.94;;;32.44;38.14
41366;BME280;27108;44.776;20.476;2022-08-03T08:05:47;99967.66;;;33.46;37.99
41366;BME280;27108;44.776;20.476;2022-08-03T08:08:16;99986.75;;;33.53;38.49
41366;BME280;27108;44.776;20.476;2022-08-03T08:10:46;99978.34;;;33.67;38.68
41366;BME280;27108;44.776;20.476;2022-08-03T08:13:16;99981.13;;;34.10;38.33
41366;BME280;27108;44.776;20.476;2022-08-03T08:15:45;99976.19;;;34.34;37.30
41366;BME280;27108;44.776;20.476;2022-08-03T08:18:14;99616.91;;;32.03;37.74
41366;BME280;27108;44.776;20.476;2022-08-03T08:20:44;99946.09;;;34.23;38.10
41366;BME280;27108;44.776;20.476;2022-08-03T08:23:15;99991.69;;;34.88;36.77
41366;BME280;27108;44.776;20.476;2022-08-03T08:25:53;99986.22;;;35.15;33.60
41366;BME280;27108;44.776;20.476;2022-08-03T08:28:23;99911.97;;;34.51;34.53
41366;BME280;27108;44.776;20.476;2022-08-03T08:30:53;99805.81;;;33.69;32.72
41366;BME280;27108;44.776;20.476;2022-08-03T08:33:24;99995.91;;;34.99;33.63
41366;BME280;27108;44.776;20.476;2022-08-03T08:35:59;99960.72;;;34.98;33.81
41366;BME280;27108;44.776;20.476;2022-08-03T08:38:33;99998.09;;;35.47;32.49
41366;BME280;27108;44.776;20.476;2022-08-03T08:41:04;99996.84;;;35.62;32.71
41366;BME280;27108;44.776;20.476;2022-08-03T08:43:33;99904.13;;;35.24;33.03
41366;BME280;27108;44.776;20.476;2022-08-03T08:46:02;99841.50;;;34.97;32.06
41366;BME280;27108;44.776;20.476;2022-08-03T08:48:33;99869.63;;;35.24;31.78
41366;BME280;27108;44.776;20.476;2022-08-03T08:51:04;99984.94;;;36.19;32.50
41366;BME280;27108;44.776;20.476;2022-08-03T08:53:37;99983.47;;;36.31;32.53
41366;BME280;27108;44.776;20.476;2022-08-03T08:56:07;99986.94;;;36.55;31.29
41366;BME280;27108;44.776;20.476;2022-08-03T08:58:46;99984.53;;;36.77;30.14
41366;BME280;27108;44.776;20.476;2022-08-03T09:01:17;99976.84;;;36.68;31.21
41366;BME280;27108;44.776;20.476;2022-08-03T09:03:52;99979.22;;;36.99;29.72
41366;BME280;27108;44.776;20.476;2022-08-03T09:06:23;99843.66;;;36.13;29.89
41366;BME280;27108;44.776;20.476;2022-08-03T09:08:54;99979.09;;;36.97;29.36
41366;BME280;27108;44.776;20.476;2022-08-03T09:11:23;99984.44;;;37.03;29.91
41366;BME280;27108;44.776;20.476;2022-08-03T09:13:52;99913.28;;;36.37;29.41
41366;BME280;27108;44.776;20.476;2022-08-03T09:16:23;99977.38;;;36.92;28.49
41366;BME280;27108;44.776;20.476;2022-08-03T09:18:52;99931.72;;;36.59;29.65
41366;BME280;27108;44.776;20.476;2022-08-03T09:21:23;99974.13;;;37.41;28.58
41366;BME280;27108;44.776;20.476;2022-08-03T09:24:04;99974.13;;;37.41;28.09
41366;BME280;27108;44.776;20.476;2022-08-03T09:26:37;99926.38;;;36.81;28.58
41366;BME280;27108;44.776;20.476;2022-08-03T09:29:09;99885.03;;;36.47;29.17
41366;BME280;27108;44.776;20.476;2022-08-03T09:31:45;99973.06;;;37.48;27.71
41366;BME280;27108;44.776;20.476;2022-08-03T09:34:16;99927.28;;;37.27;28.07
41366;BME280;27108;44.776;20.476;2022-08-03T09:36:49;99906.50;;;37.15;28.28
41366;BME280;27108;44.776;20.476;2022-08-03T09:39:25;99922.88;;;37.40;27.69
41366;BME280;27108;44.776;20.476;2022-08-03T09:42:06;99924.69;;;37.47;27.04
41366;BME280;27108;44.776;20.476;2022-08-03T09:44:35;99958.31;;;37.56;28.83
41366;BME280;27108;44.776;20.476;2022-08-03T09:47:05;99776.81;;;36.42;28.13
41366;BME280;27108;44.776;20.476;2022-08-03T09:49:41;99956.06;;;37.84;27.54
41366;BME280;27108;44.776;20.476;2022-08-03T09:52:15;99954.59;;;37.99;27.37
41366;BME280;27108;44.776;20.476;2022-08-03T09:54:51;99908.09;;;37.32;27.23
41366;BME280;27108;44.776;20.476;2022-08-03T09:57:21;99947.84;;;37.79;27.34
41366;BME280;27108;44.776;20.476;2022-08-03T09:59:53;99945.03;;;37.65;27.78
41366;BME280;27108;44.776;20.476;2022-08-03T10:02:41;99916.84;;;37.63;28.57
41366;BME280;27108;44.776;20.476;2022-08-03T10:05:12;99938.00;;;37.84;27.11
41366;BME280;27108;44.776;20.476;2022-08-03T10:07:46;99839.56;;;37.00;27.49
41366;BME280;27108;44.776;20.476;2022-08-03T10:10:18;99936.03;;;37.72;27.41
41366;BME280;27108;44.776;20.476;2022-08-03T10:12:47;99935.69;;;37.37;28.27
41366;BME280;27108;44.776;20.476;2022-08-03T10:15:16;99857.94;;;36.66;28.20
41366;BME280;27108;44.776;20.476;2022-08-03T10:17:45;99931.81;;;37.16;26.84
41366;BME280;27108;44.776;20.476;2022-08-03T10:20:14;99924.69;;;37.03;25.14
41366;BME280;27108;44.776;20.476;2022-08-03T10:22:45;99831.28;;;36.10;25.07
41366;BME280;27108;44.776;20.476;2022-08-03T10:25:15;99865.59;;;36.20;25.87
41366;BME280;27108;44.776;20.476;2022-08-03T10:27:47;99864.19;;;36.07;25.84
41366;BME280;27108;44.776;20.476;2022-08-03T10:30:21;99793.19;;;35.45;26.97
41366;BME280;27108;44.776;20.476;2022-08-03T10:32:54;99913.38;;;35.99;26.93
41366;BME280;27108;44.776;20.476;2022-08-03T10:35:24;99909.22;;;35.63;27.37
41366;BME280;27108;44.776;20.476;2022-08-03T10:37:56;99924.91;;;35.48;28.22
41366;BME280;27108;44.776;20.476;2022-08-03T10:40:27;99911.75;;;35.20;28.60
41366;BME280;27108;44.776;20.476;2022-08-03T10:43:17;99912.94;;;35.03;28.83
41366;BME280;27108;44.776;20.476;2022-08-03T10:45:48;99914.16;;;35.00;29.52
41366;BME280;27108;44.776;20.476;2022-08-03T10:48:18;99910.31;;;34.83;28.57
41366;BME280;27108;44.776;20.476;2022-08-03T10:50:49;99897.59;;;34.51;30.14
41366;BME280;27108;44.776;20.476;2022-08-03T10:53:34;99694.00;;;32.55;30.36
41366;BME280;27108;44.776;20.476;2022-08-03T10:56:04;99905.13;;;33.76;30.96
41366;BME280;27108;44.776;20.476;2022-08-03T10:58:52;99899.88;;;33.18;31.08
41366;BME280;27108;44.776;20.476;2022-08-03T11:01:48;99902.19;;;32.88;31.94
41366;BME280;27108;44.776;20.476;2022-08-03T11:04:19;99901.81;;;32.72;31.95
41366;BME280;27108;44.776;20.476;2022-08-03T11:07:18;99897.66;;;32.32;32.78
41366;BME280;27108;44.776;20.476;2022-08-03T11:09:48;99892.44;;;32.19;32.85
41366;BME280;27108;44.776;20.476;2022-08-03T11:12:25;99897.44;;;32.09;33.24
41366;BME280;27108;44.776;20.476;2022-08-03T11:14:58;99740.84;;;30.96;33.66
41366;BME280;27108;44.776;20.476;2022-08-03T11:17:28;99889.50;;;31.98;33.88
41366;BME280;27108;44.776;20.476;2022-08-03T11:19:56;99890.81;;;32.06;33.43
41366;BME280;27108;44.776;20.476;2022-08-03T11:22:48;99881.00;;;32.19;34.32
41366;BME280;27108;44.776;20.476;2022-08-03T11:25:20;99881.56;;;32.27;33.39
41366;BME280;27108;44.776;20.476;2022-08-03T11:28:24;99881.56;;;32.27;33.78
41366;BME280;27108;44.776;20.476;2022-08-03T11:34:15;99852.63;;;32.02;32.79
41366;BME280;27108;44.776;20.476;2022-08-03T11:37:22;99876.69;;;32.08;32.61
41366;BME280;27108;44.776;20.476;2022-08-03T11:39:54;99570.38;;;30.07;33.04
41366;BME280;27108;44.776;20.476;2022-08-03T11:42:43;99858.91;;;32.10;32.91
41366;BME280;27108;44.776;20.476;2022-08-03T11:45:15;99869.28;;;32.15;33.58
41366;BME280;27108;44.776;20.476;2022-08-03T11:48:16;99862.47;;;32.20;32.70
41366;BME280;27108;44.776;20.476;2022-08-03T11:50:47;99850.81;;;32.06;32.70
41366;BME280;27108;44.776;20.476;2022-08-03T11:53:18;99848.44;;;31.93;32.87
41366;BME280;27108;44.776;20.476;2022-08-03T11:55:47;99848.41;;;32.03;33.14
41366;BME280;27108;44.776;20.476;2022-08-03T11:58:19;99845.13;;;31.97;33.50
41366;BME280;27108;44.776;20.476;2022-08-03T12:00:49;99849.03;;;31.91;32.59
41366;BME280;27108;44.776;20.476;2022-08-03T12:03:31;99690.69;;;30.93;32.56
41366;BME280;27108;44.776;20.476;2022-08-03T12:06:01;99836.94;;;32.12;33.25
41366;BME280;27108;44.776;20.476;2022-08-03T12:08:31;99789.19;;;31.84;33.91
41366;BME280;27108;44.776;20.476;2022-08-03T12:11:03;99412.50;;;29.33;32.82
41366;BME280;27108;44.776;20.476;2022-08-03T12:13:38;99814.03;;;32.22;32.81
41366;BME280;27108;44.776;20.476;2022-08-03T12:16:08;99825.66;;;32.46;32.85
41366;BME280;27108;44.776;20.476;2022-08-03T12:18:39;99829.25;;;32.46;32.40
41366;BME280;27108;44.776;20.476;2022-08-03T12:21:09;99816.44;;;32.47;32.13
41366;BME280;27108;44.776;20.476;2022-08-03T12:27:02;99815.31;;;32.31;32.87
41366;BME280;27108;44.776;20.476;2022-08-03T12:29:30;99825.25;;;32.30;32.54
41366;BME280;27108;44.776;20.476;2022-08-03T12:32:00;99815.31;;;32.31;31.51
41366;BME280;27108;44.776;20.476;2022-08-03T12:34:48;99814.56;;;32.30;31.70
41366;BME280;27108;44.776;20.476;2022-08-03T12:37:18;99815.41;;;32.21;31.18
41366;BME280;27108;44.776;20.476;2022-08-03T12:39:53;99769.81;;;31.82;31.79
41366;BME280;27108;44.776;20.476;2022-08-03T12:42:29;99819.00;;;32.22;32.24
41366;BME280;27108;44.776;20.476;2022-08-03T12:45:27;99824.56;;;32.20;31.02
41366;BME280;27108;44.776;20.476;2022-08-03T12:47:59;99812.59;;;32.33;31.51
41366;BME280;27108;44.776;20.476;2022-08-03T12:50:30;99809.75;;;32.33;31.61
41366;BME280;27108;44.776;20.476;2022-08-03T12:53:01;99760.72;;;32.05;31.43
41366;BME280;27108;44.776;20.476;2022-08-03T12:55:31;99822.66;;;32.34;32.17
41366;BME280;27108;44.776;20.476;2022-08-03T12:58:06;99810.50;;;32.33;31.83
41366;BME280;27108;44.776;20.476;2022-08-03T13:00:38;99770.88;;;32.18;32.21
41366;BME280;27108;44.776;20.476;2022-08-03T13:03:14;99723.25;;;31.70;31.97
41366;BME280;27108;44.776;20.476;2022-08-03T13:05:55;99796.50;;;32.37;31.41
41366;BME280;27108;44.776;20.476;2022-08-03T13:08:24;99791.25;;;32.55;32.06
41366;BME280;27108;44.776;20.476;2022-08-03T13:10:53;99797.09;;;32.79;32.04
41366;BME280;27108;44.776;20.476;2022-08-03T13:13:38;99689.16;;;32.36;31.20
41366;BME280;27108;44.776;20.476;2022-08-03T13:16:07;99783.28;;;33.42;30.13
41366;BME280;27108;44.776;20.476;2022-08-03T13:18:40;99685.88;;;33.06;28.47
41366;BME280;27108;44.776;20.476;2022-08-03T13:21:11;99746.09;;;33.77;28.25
41366;BME280;27108;44.776;20.476;2022-08-03T13:23:40;99780.25;;;34.32;29.13
41366;BME280;27108;44.776;20.476;2022-08-03T13:26:09;99660.16;;;33.53;28.32